createdAt,value
2022-07-26T00:01:38.334Z,9.40
2022-07-26T00:04:09.202Z,9.52
2022-07-26T00:06:40.946Z,9.73
2022-07-26T00:09:11.643Z,8.93
2022-07-26T00:11:42.544Z,8.75
2022-07-26T00:14:13.492Z,9.23
2022-07-26T00:16:44.142Z,8.02
2022-07-26T00:19:14.618Z,9.65
2022-07-26T00:21:45.384Z,7.82
2022-07-26T00:24:15.979Z,7.75
2022-07-26T00:26:46.440Z,7.80
2022-07-26T00:29:17.184Z,8.70
2022-07-26T00:31:47.793Z,9.23
2022-07-26T00:34:18.348Z,8.15
2022-07-26T00:36:48.913Z,8.35
2022-07-26T00:39:19.386Z,8.93
2022-07-26T00:41:49.885Z,9.20
2022-07-26T00:44:20.495Z,9.77
2022-07-26T00:46:51.154Z,8.77
2022-07-26T00:49:21.738Z,9.05
2022-07-26T00:51:52.389Z,9.07
2022-07-26T00:54:22.809Z,8.32
2022-07-26T00:56:55.272Z,7.82
2022-07-26T00:59:26.341Z,9.02
2022-07-26T01:01:57.097Z,9.23
2022-07-26T01:04:28.689Z,8.23
2022-07-26T01:06:59.981Z,8.93
2022-07-26T01:09:31.201Z,8.27
2022-07-26T01:12:03.911Z,8.15
2022-07-26T01:14:34.392Z,8.13
2022-07-26T01:17:05.038Z,7.80
2022-07-26T01:19:35.472Z,8.18
2022-07-26T01:22:07.160Z,9.90
2022-07-26T01:24:40.360Z,11.07
2022-07-26T01:27:11.954Z,11.43
2022-07-26T01:29:42.488Z,7.82
2022-07-26T01:32:13.076Z,5.95
2022-07-26T01:34:43.566Z,6.22
2022-07-26T01:37:14.215Z,9.40
2022-07-26T01:39:46.983Z,19.00
2022-07-26T01:42:17.480Z,22.58
2022-07-26T01:44:48.054Z,23.75
2022-07-26T01:47:18.629Z,22.20
2022-07-26T01:49:49.164Z,22.55
2022-07-26T01:52:20.149Z,22.38
2022-07-26T01:54:50.666Z,15.77
2022-07-26T01:57:21.352Z,14.60
2022-07-26T01:59:51.793Z,12.93
2022-07-26T02:02:22.510Z,11.55
2022-07-26T02:05:03.734Z,12.80
2022-07-26T02:07:43.100Z,11.40
2022-07-26T02:10:16.240Z,7.05
2022-07-26T02:12:46.818Z,6.22
2022-07-26T02:15:17.745Z,5.32
2022-07-26T02:17:48.273Z,5.05
2022-07-26T02:20:19.026Z,4.63
2022-07-26T02:22:49.528Z,4.90
2022-07-26T02:25:20.022Z,5.20
2022-07-26T02:27:50.574Z,4.90
2022-07-26T02:30:21.132Z,5.25
2022-07-26T02:32:51.932Z,5.32
2022-07-26T02:35:22.475Z,4.93
2022-07-26T02:37:52.979Z,5.47
2022-07-26T02:40:23.724Z,4.80
2022-07-26T02:42:54.319Z,4.32
2022-07-26T02:45:24.938Z,5.07
2022-07-26T02:47:57.447Z,5.63
2022-07-26T02:50:29.394Z,5.97
2022-07-26T02:53:00.263Z,5.68
2022-07-26T02:55:30.833Z,6.40
2022-07-26T02:58:01.404Z,5.93
2022-07-26T03:00:31.866Z,6.20
2022-07-26T03:03:02.384Z,6.10
2022-07-26T03:05:32.984Z,6.20
2022-07-26T03:08:04.055Z,5.88
2022-07-26T03:10:34.815Z,5.43
2022-07-26T03:13:05.403Z,6.03
2022-07-26T03:15:35.953Z,6.00
2022-07-26T03:18:06.579Z,6.43
2022-07-26T03:20:37.125Z,5.90
2022-07-26T03:23:07.630Z,7.00
2022-07-26T03:25:38.625Z,6.38
2022-07-26T03:28:09.343Z,6.20
2022-07-26T03:30:39.726Z,6.80
2022-07-26T03:33:10.353Z,6.70
2022-07-26T03:35:40.780Z,6.28
2022-07-26T03:38:12.266Z,7.28
2022-07-26T03:43:12.520Z,6.80
2022-07-26T03:45:44.309Z,6.75
2022-07-26T03:48:14.999Z,6.05
2022-07-26T03:50:45.586Z,6.28
2022-07-26T03:53:16.642Z,6.78
2022-07-26T03:56:05.035Z,7.43
2022-07-26T03:58:35.686Z,6.80
2022-07-26T04:01:07.996Z,6.90
2022-07-26T04:03:38.590Z,6.55
2022-07-26T04:06:11.021Z,5.82
2022-07-26T04:08:42.902Z,6.13
2022-07-26T04:11:13.718Z,6.03
2022-07-26T04:13:44.239Z,5.85
2022-07-26T04:16:17.141Z,6.22
2022-07-26T04:18:47.637Z,6.30
2022-07-26T04:21:18.726Z,6.30
2022-07-26T04:23:51.323Z,6.75
2022-07-26T04:26:23.142Z,6.38
2022-07-26T04:28:53.763Z,6.45
2022-07-26T04:31:27.357Z,6.88
2022-07-26T04:34:05.875Z,6.30
2022-07-26T04:36:36.614Z,6.38
2022-07-26T04:39:07.178Z,6.50
2022-07-26T04:41:39.193Z,6.47
2022-07-26T04:44:10.768Z,6.00
2022-07-26T04:46:44.853Z,6.13
2022-07-26T04:49:15.831Z,7.22
2022-07-26T04:51:46.322Z,6.50
2022-07-26T04:54:21.883Z,5.82
2022-07-26T04:56:52.388Z,6.70
2022-07-26T05:01:52.901Z,5.63
2022-07-26T05:04:23.521Z,7.15
2022-07-26T05:09:24.181Z,6.40
2022-07-26T05:11:54.694Z,7.30
2022-07-26T05:16:54.684Z,6.72
2022-07-26T05:19:27.549Z,6.60
2022-07-26T05:21:57.806Z,7.45
2022-07-26T05:24:28.371Z,6.93
2022-07-26T05:26:58.974Z,7.13
2022-07-26T05:29:29.474Z,7.45
2022-07-26T05:31:59.937Z,6.75
2022-07-26T05:34:30.618Z,7.55
2022-07-26T05:37:01.366Z,7.28
2022-07-26T05:39:32.676Z,7.47
2022-07-26T05:42:03.282Z,6.95
2022-07-26T05:44:33.869Z,8.00
2022-07-26T05:47:04.678Z,7.10
2022-07-26T05:49:40.465Z,7.43
2022-07-26T05:54:42.969Z,6.65
2022-07-26T05:57:13.553Z,7.75
2022-07-26T05:59:44.154Z,7.18
2022-07-26T06:02:14.858Z,6.20
2022-07-26T06:04:47.332Z,7.03
2022-07-26T06:07:18.776Z,7.82
2022-07-26T06:09:49.804Z,7.95
2022-07-26T06:12:20.342Z,7.57
2022-07-26T06:14:50.913Z,8.02
2022-07-26T06:17:21.458Z,7.63
2022-07-26T06:19:52.078Z,7.72
2022-07-26T06:22:22.501Z,7.70
2022-07-26T06:24:53.214Z,7.65
2022-07-26T06:27:23.708Z,7.15
2022-07-26T06:29:54.746Z,7.25
2022-07-26T06:32:25.194Z,8.27
2022-07-26T06:34:55.747Z,7.13
2022-07-26T06:37:26.181Z,7.22
2022-07-26T06:39:56.865Z,7.45
2022-07-26T06:42:27.770Z,6.60
2022-07-26T06:44:59.100Z,7.63
2022-07-26T06:47:30.138Z,7.15
2022-07-26T06:50:00.564Z,7.72
2022-07-26T06:52:31.170Z,7.47
2022-07-26T06:55:03.142Z,6.45
2022-07-26T06:57:33.617Z,6.07
2022-07-26T07:00:16.113Z,6.47
2022-07-26T07:02:46.895Z,6.53
2022-07-26T07:05:17.578Z,7.18
2022-07-26T07:07:48.173Z,6.10
2022-07-26T07:10:19.769Z,5.63
2022-07-26T07:12:53.520Z,6.47
2022-07-26T07:17:53.778Z,5.32
2022-07-26T07:20:24.261Z,6.45
2022-07-26T07:22:54.691Z,5.10
2022-07-26T07:25:30.692Z,5.30
2022-07-26T07:28:01.717Z,5.45
2022-07-26T07:30:31.989Z,5.03
2022-07-26T07:33:03.590Z,4.50
2022-07-26T07:35:34.201Z,4.80
2022-07-26T07:38:06.780Z,4.40
2022-07-26T07:40:37.708Z,5.05
2022-07-26T07:43:08.184Z,5.28
2022-07-26T07:45:38.691Z,5.25
2022-07-26T07:48:09.277Z,4.93
2022-07-26T07:50:39.809Z,5.32
2022-07-26T07:53:10.157Z,4.72
2022-07-26T07:55:43.929Z,4.55
2022-07-26T07:58:18.996Z,4.75
2022-07-26T08:00:50.042Z,4.80
2022-07-26T08:03:21.034Z,5.25
2022-07-26T08:05:51.754Z,4.70
2022-07-26T08:08:22.914Z,4.93
2022-07-26T08:10:54.628Z,4.13
2022-07-26T08:13:27.260Z,4.93
2022-07-26T08:15:59.449Z,4.43
2022-07-26T08:18:31.400Z,4.82
2022-07-26T08:21:02.023Z,4.18
2022-07-26T08:23:32.647Z,4.78
2022-07-26T08:26:06.652Z,4.93
2022-07-26T08:28:47.233Z,4.15
2022-07-26T08:31:21.456Z,4.25
2022-07-26T08:33:51.911Z,4.05
2022-07-26T08:36:22.390Z,4.82
2022-07-26T08:38:53.795Z,4.93
2022-07-26T08:41:24.594Z,4.65
2022-07-26T08:43:55.274Z,4.80
2022-07-26T08:46:27.982Z,4.95
2022-07-26T08:48:58.946Z,5.15
2022-07-26T08:51:29.511Z,4.90
2022-07-26T08:54:05.844Z,4.90
2022-07-26T08:56:39.929Z,5.28
2022-07-26T08:59:21.296Z,5.53
2022-07-26T09:02:07.500Z,5.43
2022-07-26T09:04:44.691Z,5.55
2022-07-26T09:07:20.476Z,5.57
2022-07-26T09:10:12.343Z,5.38
2022-07-26T09:12:44.214Z,6.10
2022-07-26T09:15:22.796Z,6.13
2022-07-26T09:17:57.468Z,6.40
2022-07-26T09:20:33.368Z,5.32
2022-07-26T09:23:15.162Z,8.25
2022-07-26T09:25:47.366Z,6.15
2022-07-26T09:28:32.361Z,5.70
2022-07-26T09:31:05.600Z,6.28
2022-07-26T09:33:51.155Z,6.43
2022-07-26T09:36:22.864Z,6.72
2022-07-26T09:39:00.258Z,7.32
2022-07-26T09:41:33.761Z,7.30
2022-07-26T09:44:07.492Z,8.10
2022-07-26T09:46:58.450Z,5.80
2022-07-26T09:49:40.710Z,7.38
2022-07-26T09:52:22.213Z,5.70
2022-07-26T09:54:52.951Z,6.43
2022-07-26T09:57:23.456Z,5.47
2022-07-26T09:59:54.498Z,5.35
2022-07-26T10:02:24.992Z,5.68
2022-07-26T10:04:55.587Z,5.10
2022-07-26T10:07:26.249Z,4.68
2022-07-26T10:10:06.092Z,4.30
2022-07-26T10:12:37.684Z,4.80
2022-07-26T10:15:09.298Z,4.88
2022-07-26T10:17:44.089Z,4.25
2022-07-26T10:20:45.713Z,5.72
2022-07-26T10:23:40.665Z,4.70
2022-07-26T10:26:13.945Z,6.03
2022-07-26T10:28:44.558Z,5.20
2022-07-26T10:31:28.296Z,4.63
2022-07-26T10:34:00.564Z,3.92
2022-07-26T10:36:39.290Z,4.57
2022-07-26T10:39:14.312Z,3.70
2022-07-26T10:41:58.578Z,3.20
2022-07-26T10:44:31.323Z,2.97
2022-07-26T10:47:05.244Z,3.45
2022-07-26T10:49:46.757Z,3.17
2022-07-26T10:52:27.562Z,2.78
2022-07-26T10:55:07.700Z,3.17
2022-07-26T10:57:44.450Z,2.95
2022-07-26T11:00:24.148Z,2.67
2022-07-26T11:03:01.528Z,2.90
2022-07-26T11:05:35.957Z,3.20
2022-07-26T11:08:11.409Z,2.30
2022-07-26T11:10:50.383Z,2.08
2022-07-26T11:13:23.053Z,2.17
2022-07-26T11:16:01.287Z,2.55
2022-07-26T11:18:37.562Z,2.60
2022-07-26T11:21:14.152Z,2.50
2022-07-26T11:23:47.673Z,2.67
2022-07-26T11:26:24.644Z,2.35
2022-07-26T11:29:06.342Z,2.60
2022-07-26T11:31:55.576Z,2.53
2022-07-26T11:34:34.544Z,2.20
2022-07-26T11:37:06.851Z,2.70
2022-07-26T11:39:38.270Z,2.78
2022-07-26T11:42:11.353Z,2.95
2022-07-26T11:44:46.453Z,2.95
2022-07-26T11:47:25.517Z,3.17
2022-07-26T11:52:47.681Z,2.92
2022-07-26T11:55:31.106Z,2.55
2022-07-26T11:58:11.520Z,2.83
2022-07-26T12:00:42.069Z,3.03
2022-07-26T12:03:12.611Z,2.78
2022-07-26T12:05:43.587Z,2.95
2022-07-26T12:08:14.176Z,2.47
2022-07-26T12:10:44.763Z,2.88
2022-07-26T12:13:17.523Z,2.42
2022-07-26T12:15:53.616Z,3.55
2022-07-26T12:18:26.144Z,3.53
2022-07-26T12:21:08.005Z,3.20
2022-07-26T12:23:50.055Z,3.90
2022-07-26T12:26:25.571Z,4.07
2022-07-26T12:28:57.263Z,4.35
2022-07-26T12:31:33.202Z,4.03
2022-07-26T12:34:03.916Z,4.22
2022-07-26T12:36:36.693Z,4.30
2022-07-26T12:39:07.799Z,4.50
2022-07-26T12:41:42.091Z,4.07
2022-07-26T12:44:14.145Z,3.83
2022-07-26T12:46:48.666Z,4.40
2022-07-26T13:00:54.257Z,4.55
2022-07-26T13:03:25.241Z,4.05
2022-07-26T13:05:55.983Z,3.78
2022-07-26T13:08:26.482Z,3.78
2022-07-26T13:11:00.074Z,3.58
2022-07-26T13:13:31.437Z,4.05
2022-07-26T13:16:01.877Z,4.28
2022-07-26T13:18:32.439Z,4.25
2022-07-26T13:21:03.090Z,3.80
2022-07-26T13:23:35.068Z,4.78
2022-07-26T13:26:08.414Z,4.28
2022-07-26T13:28:41.795Z,3.90
2022-07-26T13:31:14.093Z,3.75
2022-07-26T13:33:44.944Z,4.70
2022-07-26T13:36:15.582Z,4.65
2022-07-26T13:38:46.074Z,4.35
2022-07-26T13:41:16.567Z,4.55
2022-07-26T13:43:47.591Z,4.78
2022-07-26T13:46:18.288Z,4.20
2022-07-26T13:49:00.520Z,4.43
2022-07-26T13:51:52.632Z,4.32
2022-07-26T13:54:24.730Z,4.55
2022-07-26T13:56:56.029Z,4.82
2022-07-26T13:59:27.632Z,4.38
2022-07-26T14:01:59.218Z,4.88
2022-07-26T14:04:29.945Z,4.35
2022-07-26T14:07:00.474Z,4.57
2022-07-26T14:09:30.900Z,4.38
2022-07-26T14:12:01.603Z,5.18
2022-07-26T14:14:32.347Z,4.43
2022-07-26T14:17:02.963Z,4.57
2022-07-26T14:19:33.579Z,5.20
2022-07-26T14:22:04.318Z,5.05
2022-07-26T14:24:34.787Z,4.75
2022-07-26T14:27:05.834Z,4.68
2022-07-26T14:29:36.357Z,4.45
2022-07-26T14:32:07.137Z,4.70
2022-07-26T14:34:37.706Z,5.80
2022-07-26T14:37:15.254Z,4.47
2022-07-26T14:39:59.390Z,4.32
2022-07-26T14:42:30.173Z,4.28
2022-07-26T14:45:00.834Z,4.75
2022-07-26T14:47:31.280Z,5.18
2022-07-26T14:50:06.567Z,3.88
2022-07-26T14:52:47.328Z,4.07
2022-07-26T14:55:24.838Z,4.28
2022-07-26T14:57:56.021Z,4.18
2022-07-26T15:00:26.519Z,4.30
2022-07-26T15:02:57.604Z,4.57
2022-07-26T15:05:29.134Z,4.93
2022-07-26T15:08:04.138Z,4.10
2022-07-26T15:10:36.513Z,4.25
2022-07-26T15:13:09.148Z,4.20
2022-07-26T15:15:39.593Z,3.88
2022-07-26T15:18:10.527Z,4.20
2022-07-26T15:20:42.477Z,3.67
2022-07-26T15:23:13.476Z,4.05
2022-07-26T15:25:43.971Z,4.43
2022-07-26T15:28:14.857Z,3.92
2022-07-26T15:30:45.385Z,4.30
2022-07-26T15:33:21.527Z,5.03
2022-07-26T15:35:54.474Z,4.55
2022-07-26T15:38:25.090Z,4.47
2022-07-26T15:40:55.557Z,3.83
2022-07-26T15:43:48.986Z,3.60
2022-07-26T15:46:18.365Z,3.55
2022-07-26T15:48:50.111Z,3.38
2022-07-26T15:51:22.732Z,3.13
2022-07-26T15:53:53.982Z,3.67
2022-07-26T15:56:24.445Z,3.97
2022-07-26T15:58:55.044Z,3.78
2022-07-26T16:01:25.610Z,2.83
2022-07-26T16:03:56.360Z,3.60
2022-07-26T16:06:26.778Z,3.58
2022-07-26T16:09:15.865Z,3.05
2022-07-26T16:11:48.434Z,3.28
2022-07-26T16:14:19.301Z,3.50
2022-07-26T16:16:50.667Z,3.20
2022-07-26T16:19:21.307Z,3.97
2022-07-26T16:21:51.960Z,3.50
2022-07-26T16:24:22.719Z,3.38
2022-07-26T16:26:54.003Z,3.78
2022-07-26T16:29:25.367Z,3.78
2022-07-26T16:31:57.431Z,3.90
2022-07-26T16:34:28.777Z,4.25
2022-07-26T16:36:59.286Z,3.40
2022-07-26T16:39:30.190Z,3.47
2022-07-26T16:42:04.702Z,3.70
2022-07-26T16:44:38.215Z,3.42
2022-07-26T16:47:08.825Z,3.30
2022-07-26T16:49:39.434Z,3.65
2022-07-26T16:52:09.943Z,3.50
2022-07-26T16:54:40.520Z,4.10
2022-07-26T16:57:11.254Z,4.18
2022-07-26T16:59:41.828Z,4.20
2022-07-26T17:02:12.604Z,3.55
2022-07-26T17:04:43.168Z,3.83
2022-07-26T17:07:28.867Z,3.20
2022-07-26T17:09:59.418Z,3.63
2022-07-26T17:12:29.925Z,3.42
2022-07-26T17:15:00.579Z,3.35
2022-07-26T17:17:31.156Z,3.72
2022-07-26T17:20:01.665Z,3.22
2022-07-26T17:22:32.203Z,3.22
2022-07-26T17:25:02.924Z,3.80
2022-07-26T17:27:33.406Z,2.95
2022-07-26T17:30:07.081Z,3.30
2022-07-26T17:32:39.322Z,3.38
2022-07-26T17:35:10.618Z,2.88
2022-07-26T17:37:41.126Z,2.97
2022-07-26T17:40:12.733Z,2.83
2022-07-26T17:42:43.159Z,3.13
2022-07-26T17:45:13.736Z,2.97
2022-07-26T17:47:44.203Z,3.22
2022-07-26T17:50:35.383Z,3.47
2022-07-26T17:53:05.749Z,3.38
2022-07-26T17:55:36.426Z,3.72
2022-07-26T17:58:06.962Z,3.45
2022-07-26T18:00:38.065Z,3.30
2022-07-26T18:03:08.488Z,3.92
2022-07-26T18:05:41.432Z,3.50
2022-07-26T18:08:13.273Z,3.63
2022-07-26T18:10:47.565Z,3.95
2022-07-26T18:13:21.032Z,3.80
2022-07-26T18:15:52.251Z,4.30
2022-07-26T18:18:23.062Z,3.92
2022-07-26T18:20:53.944Z,4.28
2022-07-26T18:23:24.570Z,3.85
2022-07-26T18:25:55.146Z,3.97
2022-07-26T18:28:26.121Z,3.72
2022-07-26T18:30:57.647Z,4.32
2022-07-26T18:33:28.572Z,4.20
2022-07-26T18:36:02.891Z,4.63
2022-07-26T18:38:33.414Z,4.70
2022-07-26T18:41:04.051Z,4.63
2022-07-26T18:43:35.241Z,3.92
2022-07-26T18:46:06.320Z,4.30
2022-07-26T18:48:37.405Z,4.78
2022-07-26T18:51:12.572Z,4.20
2022-07-26T18:53:43.835Z,4.15
2022-07-26T18:56:14.731Z,4.45
2022-07-26T18:58:45.391Z,5.25
2022-07-26T19:01:15.942Z,5.70
2022-07-26T19:03:46.724Z,5.00
2022-07-26T19:06:17.258Z,5.75
2022-07-26T19:08:47.757Z,5.35
2022-07-26T19:11:18.324Z,5.15
2022-07-26T19:13:48.906Z,4.40
2022-07-26T19:16:20.137Z,4.18
2022-07-26T19:18:55.375Z,4.20
2022-07-26T19:21:27.697Z,4.32
2022-07-26T19:23:58.185Z,4.05
2022-07-26T19:26:28.886Z,3.72
2022-07-26T19:28:59.445Z,4.55
2022-07-26T19:31:30.493Z,4.22
2022-07-26T19:34:01.135Z,4.05
2022-07-26T19:36:31.673Z,3.60
2022-07-26T19:39:02.533Z,4.88
2022-07-26T19:41:33.300Z,5.88
2022-07-26T19:44:04.011Z,4.57
2022-07-26T19:46:34.706Z,4.63
2022-07-26T19:49:06.171Z,4.72
2022-07-26T19:51:36.582Z,4.93
2022-07-26T19:54:07.614Z,5.13
2022-07-26T19:56:38.122Z,5.18
2022-07-26T19:59:09.003Z,4.75
2022-07-26T20:01:39.713Z,4.85
2022-07-26T20:04:10.688Z,4.90
2022-07-26T20:06:41.163Z,5.03
2022-07-26T20:09:11.952Z,4.82
2022-07-26T20:11:44.088Z,5.93
2022-07-26T20:14:14.569Z,5.90
2022-07-26T20:16:45.397Z,6.20
2022-07-26T20:19:16.054Z,6.47
2022-07-26T20:21:46.860Z,5.65
2022-07-26T20:24:18.620Z,5.30
2022-07-26T20:26:49.264Z,5.20
2022-07-26T20:29:19.981Z,5.28
2022-07-26T20:31:51.037Z,5.32
2022-07-26T20:34:21.508Z,5.60
2022-07-26T20:36:54.792Z,5.35
2022-07-26T20:39:27.461Z,6.38
2022-07-26T20:41:58.746Z,6.32
2022-07-26T20:44:31.968Z,5.03
2022-07-26T20:47:02.507Z,5.95
2022-07-26T20:49:33.151Z,5.47
2022-07-26T20:52:06.223Z,5.22
2022-07-26T20:54:36.895Z,4.90
2022-07-26T20:57:07.492Z,5.32
2022-07-26T20:59:39.434Z,4.57
2022-07-26T21:02:10.217Z,5.10
2022-07-26T21:04:40.734Z,5.07
2022-07-26T21:07:11.298Z,4.28
2022-07-26T21:09:42.499Z,5.28
2022-07-26T21:12:13.163Z,5.20
2022-07-26T21:14:43.746Z,5.47
2022-07-26T21:17:14.347Z,5.30
2022-07-26T21:19:44.953Z,5.00
2022-07-26T21:22:15.735Z,4.15
2022-07-26T21:24:46.208Z,5.72
2022-07-26T21:27:17.053Z,4.80
2022-07-26T21:29:47.607Z,5.05
2022-07-26T21:32:18.746Z,5.10
2022-07-26T21:34:49.313Z,4.82
2022-07-26T21:37:20.476Z,5.07
2022-07-26T21:39:51.265Z,6.00
2022-07-26T21:42:21.877Z,5.07
2022-07-26T21:44:57.419Z,4.30
2022-07-26T21:47:28.142Z,4.55
2022-07-26T21:49:58.536Z,5.45
2022-07-26T21:52:29.188Z,5.15
2022-07-26T21:54:59.723Z,5.28
2022-07-26T21:57:30.346Z,6.13
2022-07-26T22:00:00.841Z,5.57
2022-07-26T22:02:31.426Z,5.18
2022-07-26T22:05:02.450Z,5.22
2022-07-26T22:07:32.991Z,5.60
2022-07-26T22:10:03.508Z,5.72
2022-07-26T22:12:34.083Z,6.05
2022-07-26T22:15:04.546Z,5.63
2022-07-26T22:17:35.835Z,4.97
2022-07-26T22:20:08.369Z,5.65
2022-07-26T22:22:39.502Z,5.13
2022-07-26T22:25:10.484Z,5.97
2022-07-26T22:27:41.034Z,5.63
2022-07-26T22:30:12.777Z,4.88
2022-07-26T22:32:44.236Z,5.10
2022-07-26T22:35:14.986Z,5.65
2022-07-26T22:37:46.011Z,6.05
2022-07-26T22:40:16.934Z,4.80
2022-07-26T22:42:48.474Z,5.25
2022-07-26T22:45:19.000Z,5.53
2022-07-26T22:47:56.461Z,5.63
2022-07-26T22:50:27.673Z,6.40
2022-07-26T22:52:58.575Z,6.53
2022-07-26T22:55:29.766Z,6.05
2022-07-26T22:58:00.560Z,6.90
2022-07-26T23:00:31.363Z,5.63
2022-07-26T23:03:02.127Z,5.40
2022-07-26T23:05:45.883Z,5.47
2022-07-26T23:11:08.514Z,5.97
2022-07-26T23:13:39.003Z,6.70
2022-07-26T23:16:09.572Z,7.93
2022-07-26T23:18:40.120Z,7.95
2022-07-26T23:21:10.616Z,8.05
2022-07-26T23:23:41.177Z,8.27
2022-07-26T23:26:11.770Z,7.22
2022-07-26T23:28:42.224Z,7.60
2022-07-26T23:31:14.048Z,7.45
2022-07-26T23:33:52.441Z,7.82
2022-07-26T23:36:29.160Z,8.13
2022-07-26T23:39:02.310Z,9.30
2022-07-26T23:41:42.338Z,9.27
2022-07-26T23:44:12.894Z,8.35
2022-07-26T23:46:43.488Z,10.35
2022-07-26T23:49:14.460Z,10.32
2022-07-26T23:51:45.313Z,14.70
2022-07-26T23:54:15.812Z,14.05
2022-07-26T23:56:46.884Z,14.40
2022-07-26T23:59:17.619Z,15.77
